Tinker Air Force Base
KTIK : now visible

Airfield :











YOU CAN JOIN US ON...

 
LOGIN :

Register | Disclaimer

   EN    FR    IT 

 









Legend :    VFR   Marginal VFR   IFR   Intensive IFR   Very Intensive IFR
Visi :
Ceiling :
>= 8 km
>= 3000ft
5 to 8 km
1000 to 3000 ft
1500m to 5 km
500 to 1000 ft
800 to 1500m
200 to 500 ft
< 800m
< 200 ft
Symbols :   Thunderstorms  Fog  Heavy snow  Heavy precipitations  Wind > 20 kt






- Airport Elevation : 1291 ft


KTIK - Tinker Air Force Base

CURRENT METAR :
  • 141856Z AUTO 11006KT 10SM FEW190 32/21 A2990 RMK AO2 SLP116 T03220214

EXPIRED METARs :
  • 141756Z AUTO 11009KT 10SM CLR 31/21 A2991 RMK AO2 SLP120 T03080210 10309 20234 50003
  • 141656Z AUTO 12009KT 10SM CLR 30/21 A2991 RMK AO2 SLP119 T02970208

TAF TAF KTIK
Valid from the 14 at 17:00 until the 15 at 23:00 UTC


141700Z 1417/1523 09010KT 9999 SCT120 QNH2980INS
TEMPO 1517/1520 04010G20KT TX35/1422Z TN24/1510Z
KZFW FIR / North America



MET'MAP, your aeronautical weather chart ! - Copyright ORBIFLY December 2007 - Disclaimer

ORBIFLY MET'MAP TEAM :

Programming & Development : Alexandra Zaïnal
Concept & original design : Baudouin d'Aumeries
Assistance for programming : Marc-Olivier Méhu
Technical & hardware support : Manuel Goepfert

Contact : metmap@orbifly.com




SOURCES & CREDITS :

   NOAA       Earth
Advisory